Time;durP1;ratioP1;P1;durP2;ratioP2;P2;SDS_P1;SDS_P2;PMS_P1;PMS_P2;Temp;Humidity;BMP_temperature;BMP_pressure;BME280_temperature;BME280_humidity;BME280_pressure;Samples;Min_cycle;Max_cycle;Signal;HPM_P1;HPM_P2
2022/07/18 00:01:37;;;;;;;5.97;1.55;;;;;;;26.16;27.81;100313.59;5102178;28;20044;-68
2022/07/18 00:04:03;;;;;;;2.55;1.30;;;;;;;26.07;28.24;100315.09;5106108;28;21966;-68
2022/07/18 00:06:28;;;;;;;4.93;1.58;;;;;;;26.02;28.35;100325.88;5103948;28;20294;-67
2022/07/18 00:08:54;;;;;;;6.50;1.67;;;;;;;25.95;28.36;100314.34;5103304;28;20039;-68
2022/07/18 00:11:21;;;;;;;2.50;1.48;;;;;;;25.90;28.78;100312.38;5081520;28;20055;-68
2022/07/18 00:13:47;;;;;;;5.93;1.63;;;;;;;25.82;29.07;100320.94;5105699;28;20099;-68
2022/07/18 00:16:13;;;;;;;5.45;1.90;;;;;;;25.69;29.48;100318.56;5102166;28;20040;-68
2022/07/18 00:18:38;;;;;;;6.93;1.83;;;;;;;25.63;29.95;100322.25;5102294;28;20032;-68
2022/07/18 00:21:04;;;;;;;2.80;1.80;;;;;;;25.71;30.48;100317.25;5104973;28;20062;-68
2022/07/18 00:23:29;;;;;;;2.75;1.75;;;;;;;25.59;30.85;100313.78;5103581;28;20321;-68
2022/07/18 00:25:55;;;;;;;4.05;2.22;;;;;;;25.64;30.79;100311.16;5103991;28;20237;-68
2022/07/18 00:28:20;;;;;;;4.35;2.03;;;;;;;25.53;31.00;100313.94;5103003;28;20036;-68
2022/07/18 00:30:46;;;;;;;5.25;1.60;;;;;;;25.27;31.56;100304.56;5104841;28;20078;-68
2022/07/18 00:33:11;;;;;;;4.88;1.90;;;;;;;25.26;31.97;100317.28;5105120;28;20024;-68
2022/07/18 00:35:37;;;;;;;5.47;2.20;;;;;;;25.21;32.09;100311.78;5103266;28;20099;-68
2022/07/18 00:38:03;;;;;;;3.47;2.20;;;;;;;25.36;32.30;100314.75;5103893;28;20040;-68
2022/07/18 00:40:29;;;;;;;3.58;2.10;;;;;;;25.27;32.23;100312.69;5083801;28;20023;-68
2022/07/18 00:42:55;;;;;;;8.57;2.22;;;;;;;25.31;32.71;100322.81;5102629;28;20036;-68
2022/07/18 00:45:21;;;;;;;5.40;1.98;;;;;;;25.29;32.63;100311.38;5100747;28;20084;-68
2022/07/18 00:47:46;;;;;;;7.22;2.30;;;;;;;25.27;32.74;100309.97;5107970;28;20274;-68
2022/07/18 00:50:12;;;;;;;5.13;2.30;;;;;;;25.18;33.08;100328.53;5103985;28;20040;-68
2022/07/18 00:52:38;;;;;;;9.55;2.42;;;;;;;25.18;32.92;100328.53;5103909;28;20032;-68
2022/07/18 00:55:06;;;;;;;6.07;2.20;;;;;;;25.00;33.10;100329.56;5102379;28;20035;-68
2022/07/18 00:57:32;;;;;;;4.15;2.25;;;;;;;25.08;33.25;100331.06;5101828;28;20064;-68
2022/07/18 01:02:42;;;;;;;6.10;2.15;;;;;;;25.14;33.23;100336.31;5099987;28;20076;-68
2022/07/18 01:05:08;;;;;;;5.40;2.03;;;;;;;25.14;33.11;100338.22;5102259;28;20040;-68
2022/07/18 01:07:35;;;;;;;2.63;2.08;;;;;;;25.11;33.32;100344.13;5100868;28;20311;-68
2022/07/18 01:10:02;;;;;;;6.97;2.13;;;;;;;25.05;33.10;100348.63;5103539;28;20046;-68
2022/07/18 01:12:27;;;;;;;4.18;1.85;;;;;;;25.03;33.49;100348.03;5103782;28;20050;-68
2022/07/18 01:14:55;;;;;;;3.65;2.17;;;;;;;25.03;33.31;100347.22;5099108;28;20228;-68
2022/07/18 01:17:21;;;;;;;3.13;1.92;;;;;;;24.92;33.27;100339.91;5102110;28;20039;-68
2022/07/18 01:19:47;;;;;;;5.13;1.83;;;;;;;24.88;33.12;100336.84;5104093;28;20025;-68
2022/07/18 01:22:14;;;;;;;2.97;1.83;;;;;;;24.86;32.60;100338.16;5100577;28;20243;-68
2022/07/18 01:24:40;;;;;;;5.05;2.17;;;;;;;24.80;32.42;100335.34;5099388;28;20035;-68
2022/07/18 01:27:06;;;;;;;5.10;1.80;;;;;;;24.81;32.22;100338.88;5103715;28;20075;-67
2022/07/18 01:29:32;;;;;;;4.65;1.98;;;;;;;24.63;31.96;100339.88;5103157;28;20023;-68
2022/07/18 01:32:08;;;;;;;3.40;1.60;;;;;;;24.50;31.79;100340.16;5105761;28;20032;-68
2022/07/18 01:34:34;;;;;;;2.28;1.80;;;;;;;24.39;31.56;100332.88;5101482;28;20206;-68
2022/07/18 01:37:00;;;;;;;4.53;1.90;;;;;;;24.46;31.33;100337.09;5102943;28;20338;-68
2022/07/18 01:39:26;;;;;;;4.68;2.25;;;;;;;24.41;31.21;100331.56;5102404;28;20042;-67
2022/07/18 01:42:03;;;;;;;6.05;1.73;;;;;;;24.44;31.03;100330.28;5101074;28;20107;-68
2022/07/18 01:44:30;;;;;;;3.05;1.73;;;;;;;24.31;30.82;100338.66;5101116;28;20237;-68
2022/07/18 01:46:55;;;;;;;2.42;1.50;;;;;;;24.13;31.16;100336.88;5100005;28;20027;-68
2022/07/18 01:49:22;;;;;;;3.25;1.40;;;;;;;24.17;30.94;100338.88;5105891;28;20267;-67
2022/07/18 01:51:50;;;;;;;4.03;1.60;;;;;;;24.10;30.72;100334.66;5084258;28;20024;-68
2022/07/18 01:54:16;;;;;;;3.05;1.60;;;;;;;23.89;30.98;100331.44;5099580;28;21387;-68
2022/07/18 01:56:41;;;;;;;4.68;1.52;;;;;;;23.99;30.96;100343.59;5101984;28;20099;-68
2022/07/18 01:59:07;;;;;;;3.35;1.73;;;;;;;24.03;30.67;100337.47;5098040;28;20036;-68
2022/07/18 02:01:32;;;;;;;3.70;1.50;;;;;;;24.12;30.58;100336.06;5084042;28;20024;-67
2022/07/18 02:03:58;;;;;;;4.93;1.75;;;;;;;23.91;30.94;100330.38;5104750;28;20322;-68
2022/07/18 02:06:23;;;;;;;3.97;1.67;;;;;;;23.89;30.94;100339.56;5083762;28;20029;-68
2022/07/18 02:08:49;;;;;;;7.28;1.90;;;;;;;23.42;31.42;100344.06;5104789;28;20054;-68
2022/07/18 02:11:14;;;;;;;4.10;1.90;;;;;;;23.45;31.51;100340.06;5103837;28;20249;-68
2022/07/18 02:13:40;;;;;;;5.13;1.65;;;;;;;23.46;31.46;100344.41;5101612;28;20035;-68
2022/07/18 02:16:06;;;;;;;5.53;1.80;;;;;;;23.11;31.66;100322.69;5102619;28;20032;-68
2022/07/18 02:18:32;;;;;;;4.13;1.75;;;;;;;23.15;31.95;100342.78;5102535;28;20029;-68
2022/07/18 02:21:01;;;;;;;7.53;1.95;;;;;;;23.19;32.10;100349.38;5083263;28;20039;-68
2022/07/18 02:23:27;;;;;;;4.35;2.03;;;;;;;23.17;32.50;100346.91;5087848;28;20040;-68
2022/07/18 02:25:54;;;;;;;7.45;2.13;;;;;;;23.05;32.48;100353.31;5101085;28;20052;-68
2022/07/18 02:28:19;;;;;;;5.53;2.22;;;;;;;22.99;32.82;100354.25;5098544;28;20039;-68
2022/07/18 02:30:45;;;;;;;5.97;2.20;;;;;;;22.84;33.11;100363.53;5103830;28;20031;-67
2022/07/18 02:33:10;;;;;;;8.25;1.95;;;;;;;22.75;32.98;100355.94;5107046;28;20214;-68
2022/07/18 02:35:36;;;;;;;6.78;2.00;;;;;;;;;;5103541;28;20047;-68
2022/07/18 02:38:01;;;;;;;3.65;1.73;;;;;;;22.74;33.22;100363.22;5104502;28;20023;-68
2022/07/18 02:40:27;;;;;;;5.10;1.90;;;;;;;22.67;33.61;100367.88;5107462;28;20034;-68
2022/07/18 02:42:52;;;;;;;3.50;2.08;;;;;;;22.66;33.86;100352.72;5099530;28;20338;-68
2022/07/18 02:45:18;;;;;;;6.90;2.05;;;;;;;22.84;33.78;100358.13;5106648;28;20024;-68
2022/07/18 02:47:43;;;;;;;5.15;2.00;;;;;;;22.86;33.79;100363.31;5107477;28;20078;-68
2022/07/18 02:50:09;;;;;;;3.42;2.25;;;;;;;22.87;33.86;100373.06;5102081;28;20032;-68
2022/07/18 02:52:35;;;;;;;5.15;2.17;;;;;;;22.83;34.31;100367.28;5105980;28;20028;-67
2022/07/18 02:55:01;;;;;;;4.07;2.08;;;;;;;22.79;34.50;100367.94;5104710;28;20072;-68
2022/07/18 02:57:27;;;;;;;4.75;2.20;;;;;;;22.70;35.42;100359.31;5104957;28;20043;-68
2022/07/18 02:59:53;;;;;;;4.03;2.13;;;;;;;22.65;35.44;100366.44;5105518;28;20031;-68
2022/07/18 03:02:18;;;;;;;5.35;2.17;;;;;;;22.56;35.50;100363.22;5104091;28;20028;-68
2022/07/18 03:04:44;;;;;;;5.15;2.90;;;;;;;22.38;36.12;100360.53;5101218;28;20238;-68
2022/07/18 03:07:09;;;;;;;7.38;2.25;;;;;;;22.33;36.26;100371.16;5104646;28;20044;-68
2022/07/18 03:09:35;;;;;;;6.72;2.13;;;;;;;22.31;36.36;100352.50;5108195;28;20042;-68
2022/07/18 03:12:00;;;;;;;3.78;2.25;;;;;;;22.43;36.16;100361.50;5101195;28;20040;-68
2022/07/18 03:14:26;;;;;;;5.55;2.17;;;;;;;22.26;36.54;100363.97;5103259;28;20020;-68
2022/07/18 03:16:51;;;;;;;7.00;2.15;;;;;;;22.43;36.50;100369.59;5088480;28;20046;-67
2022/07/18 03:19:16;;;;;;;4.28;2.65;;;;;;;22.36;36.56;100365.31;5105297;28;20034;-68
2022/07/18 03:21:42;;;;;;;4.03;2.25;;;;;;;22.26;36.76;100368.53;5106350;28;20023;-68
2022/07/18 03:24:08;;;;;;;8.73;2.25;;;;;;;22.31;36.49;100379.50;5103368;28;20024;-68
2022/07/18 03:26:34;;;;;;;5.20;2.33;;;;;;;22.17;36.76;100373.41;5100909;28;20076;-68
2022/07/18 03:28:59;;;;;;;7.85;2.05;;;;;;;22.29;36.58;100370.78;5101369;28;20060;-68
2022/07/18 03:31:24;;;;;;;3.10;2.10;;;;;;;22.32;36.60;100380.31;5104245;28;20128;-68
2022/07/18 03:33:50;;;;;;;7.18;2.42;;;;;;;22.42;36.26;100377.94;5105119;28;20035;-68
2022/07/18 03:36:15;;;;;;;8.68;1.80;;;;;;;22.13;36.10;100347.91;5103799;28;20027;-68
2022/07/18 03:38:44;;;;;;;3.35;1.95;;;;;;;22.28;36.12;100375.38;5086676;28;20047;-67
2022/07/18 03:41:11;;;;;;;3.03;2.00;;;;;;;22.35;35.67;100377.16;5101025;28;20044;-68
2022/07/18 03:43:39;;;;;;;4.35;1.73;;;;;;;22.27;35.86;100378.28;5106409;28;20044;-68
2022/07/18 03:46:06;;;;;;;7.35;1.88;;;;;;;22.40;35.79;100388.94;5088159;28;20234;-68
2022/07/18 03:48:31;;;;;;;6.88;1.55;;;;;;;22.74;34.60;100384.00;5101743;28;20113;-67
2022/07/18 03:50:57;;;;;;;5.55;1.90;;;;;;;22.88;34.43;100394.44;5106766;28;20051;-68
2022/07/18 03:53:22;;;;;;;3.30;1.80;;;;;;;22.82;34.30;100397.22;5105283;28;20039;-67
2022/07/18 03:55:48;;;;;;;5.05;2.00;;;;;;;22.92;34.24;100390.25;5102796;28;20234;-68
2022/07/18 03:58:13;;;;;;;4.80;2.00;;;;;;;23.02;34.27;100394.31;5102137;28;20023;-68
2022/07/18 04:00:38;;;;;;;8.02;2.08;;;;;;;23.11;33.80;100401.84;5105977;28;20085;-67
2022/07/18 04:03:04;;;;;;;3.92;1.98;;;;;;;22.81;34.47;100399.09;5101730;28;20039;-68
2022/07/18 04:05:30;;;;;;;4.80;2.15;;;;;;;23.01;34.44;100419.66;5104732;28;20248;-68
2022/07/18 04:07:55;;;;;;;10.50;1.95;;;;;;;22.89;34.88;100414.19;5089113;28;20048;-68
2022/07/18 04:10:20;;;;;;;4.97;1.95;;;;;;;22.82;35.23;100427.75;5103381;28;20044;-68
2022/07/18 04:12:51;;;;;;;7.20;2.00;;;;;;;23.00;36.10;100434.22;5101324;28;20028;-68
2022/07/18 04:15:18;;;;;;;3.08;2.20;;;;;;;22.98;36.55;100431.75;5103472;28;20059;-68
2022/07/18 04:17:44;;;;;;;11.23;2.10;;;;;;;23.11;36.15;100419.94;5099918;28;20044;-68
2022/07/18 04:20:11;;;;;;;9.30;2.80;;;;;;;23.04;36.73;100432.72;5105807;28;20038;-68
2022/07/18 04:22:49;;;;;;;5.43;2.10;;;;;;;23.18;36.76;100429.63;5105221;28;20237;-68
2022/07/18 04:25:15;;;;;;;20.58;9.85;;;;;;;23.33;35.87;100431.09;5099919;28;20041;-68
2022/07/18 04:27:40;;;;;;;8.00;2.97;;;;;;;23.36;35.73;100436.03;5102768;28;20028;-68
2022/07/18 04:30:06;;;;;;;3.60;1.98;;;;;;;23.47;36.03;100444.19;5102608;28;20019;-68
2022/07/18 04:32:32;;;;;;;4.95;2.13;;;;;;;23.92;35.56;100445.63;5105509;28;20095;-67
2022/07/18 04:34:57;;;;;;;4.50;2.15;;;;;;;24.22;34.83;100451.81;5102382;28;20076;-67
2022/07/18 04:37:23;;;;;;;7.93;2.28;;;;;;;24.17;34.99;100449.00;5104054;28;20084;-68
2022/07/18 04:39:48;;;;;;;6.30;2.00;;;;;;;24.10;34.78;100459.09;5100539;28;20031;-68
2022/07/18 04:42:13;;;;;;;6.00;1.90;;;;;;;24.23;34.33;100458.88;5104250;28;20053;-67
2022/07/18 04:44:39;;;;;;;14.27;2.47;;;;;;;24.25;34.66;100464.06;5099742;28;20037;-68
2022/07/18 04:47:04;;;;;;;8.10;2.08;;;;;;;24.34;34.43;100468.09;5103335;28;20027;-67
2022/07/18 04:49:31;;;;;;;6.30;2.00;;;;;;;24.23;34.77;100471.59;5102811;28;20043;-68
2022/07/18 04:51:56;;;;;;;6.57;1.90;;;;;;;24.33;34.56;100461.03;5104506;28;20024;-68
2022/07/18 04:54:21;;;;;;;7.82;2.20;;;;;;;24.50;34.10;100465.50;5102937;28;20046;-68
2022/07/18 04:56:47;;;;;;;4.15;2.30;;;;;;;24.49;34.42;100465.75;5100268;28;20044;-68
2022/07/18 04:59:12;;;;;;;7.20;2.53;;;;;;;24.36;35.21;100465.97;5102679;28;20080;-68
2022/07/18 05:01:38;;;;;;;6.50;2.60;;;;;;;24.56;34.47;100471.03;5102679;28;20028;-68
2022/07/18 05:04:04;;;;;;;7.57;2.10;;;;;;;24.84;33.91;100465.72;5099168;28;20050;-68
2022/07/18 05:06:29;;;;;;;7.57;2.13;;;;;;;24.94;33.59;100471.34;5103196;28;20046;-68
2022/07/18 05:08:55;;;;;;;7.53;3.42;;;;;;;24.90;33.79;100474.75;5101415;28;20064;-68
2022/07/18 05:11:20;;;;;;;7.10;3.13;;;;;;;25.31;33.79;100471.06;5101611;28;20086;-68
2022/07/18 05:13:46;;;;;;;5.00;2.30;;;;;;;25.37;32.65;100470.09;5103058;28;20265;-68
2022/07/18 05:16:11;;;;;;;10.15;3.13;;;;;;;25.78;33.18;100469.00;5101821;28;20513;-68
2022/07/18 05:18:36;;;;;;;9.63;2.70;;;;;;;26.24;32.60;100467.06;5100554;28;20028;-68
2022/07/18 05:21:02;;;;;;;10.57;2.45;;;;;;;26.37;31.75;100461.34;5106848;28;20059;-68
2022/07/18 05:23:27;;;;;;;7.25;1.90;;;;;;;26.64;30.21;100464.19;5085894;28;20044;-68
2022/07/18 05:25:53;;;;;;;10.93;2.00;;;;;;;26.95;29.64;100455.34;5102153;28;20263;-68
2022/07/18 05:28:18;;;;;;;9.50;2.30;;;;;;;26.84;29.56;100450.88;5103135;28;20101;-68
2022/07/18 05:30:44;;;;;;;6.93;1.80;;;;;;;26.81;28.75;100448.66;5101859;28;20028;-68
2022/07/18 05:33:09;;;;;;;6.72;1.70;;;;;;;26.84;28.74;100450.88;5103389;28;20034;-68
2022/07/18 05:35:35;;;;;;;5.00;2.25;;;;;;;27.17;28.34;100441.81;5101659;28;20052;-68
2022/07/18 05:38:00;;;;;;;8.60;1.58;;;;;;;27.25;27.60;100452.25;5100692;28;20043;-68
2022/07/18 05:40:26;;;;;;;5.60;1.65;;;;;;;27.21;27.22;100453.00;5102554;28;20261;-68
2022/07/18 05:42:51;;;;;;;13.07;1.67;;;;;;;27.17;26.05;100463.56;5101303;28;20040;-68
2022/07/18 05:45:17;;;;;;;7.05;1.70;;;;;;;27.23;26.62;100457.13;5100670;28;20765;-68
2022/07/18 05:47:42;;;;;;;5.55;2.10;;;;;;;27.49;26.43;100435.63;5104095;28;20036;-68
2022/07/18 05:50:08;;;;;;;3.00;1.45;;;;;;;27.73;26.40;100455.22;5102445;28;20030;-68
2022/07/18 05:52:34;;;;;;;5.28;1.65;;;;;;;27.56;25.22;100450.66;5102105;28;20031;-68
2022/07/18 05:55:00;;;;;;;3.42;1.48;;;;;;;27.58;25.49;100451.22;5103953;28;20237;-68
2022/07/18 05:57:26;;;;;;;6.82;2.25;;;;;;;28.01;25.36;100451.38;5104998;28;20044;-68
2022/07/18 05:59:51;;;;;;;4.00;1.35;;;;;;;27.91;25.96;100447.50;5102107;28;20042;-68
2022/07/18 06:02:17;;;;;;;11.48;1.75;;;;;;;28.10;25.58;100447.94;5101239;28;20043;-68
2022/07/18 06:04:42;;;;;;;3.95;1.70;;;;;;;27.97;25.91;100457.34;5100010;28;20042;-68
2022/07/18 06:07:08;;;;;;;5.90;2.00;;;;;;;27.99;25.72;100455.19;5103040;28;20024;-68
2022/07/18 06:09:33;;;;;;;3.15;1.95;;;;;;;27.91;25.32;100455.66;5107694;28;20032;-68
2022/07/18 06:12:00;;;;;;;4.93;2.60;;;;;;;27.91;25.77;100447.50;5087028;28;20055;-68
2022/07/18 06:14:27;;;;;;;5.60;1.63;;;;;;;28.00;25.33;100450.56;5108199;28;20020;-68
2022/07/18 06:16:52;;;;;;;5.97;2.03;;;;;;;28.07;25.30;100448.44;5106166;28;20055;-68
2022/07/18 06:19:18;;;;;;;6.13;1.70;;;;;;;28.27;24.47;100445.09;5100114;28;20040;-68
2022/07/18 06:21:43;;;;;;;4.68;2.17;;;;;;;28.21;24.71;100448.84;5105331;28;20217;-68
2022/07/18 06:24:09;;;;;;;5.55;1.48;;;;;;;28.42;24.51;100450.66;5105437;28;20242;-68
2022/07/18 06:26:34;;;;;;;5.85;2.03;;;;;;;28.19;23.90;100462.72;5103505;28;20028;-68
2022/07/18 06:29:00;;;;;;;2.95;1.40;;;;;;;28.53;24.16;100460.53;5105949;28;20024;-68
2022/07/18 06:31:25;;;;;;;4.47;1.90;;;;;;;28.88;24.24;100468.09;5104136;28;20032;-68
2022/07/18 06:33:51;;;;;;;5.65;1.80;;;;;;;28.85;24.23;100465.09;5086076;28;20032;-68
2022/07/18 06:36:17;;;;;;;2.40;1.52;;;;;;;28.39;23.92;100466.69;5106191;28;20066;-69
2022/07/18 06:38:42;;;;;;;5.53;1.60;;;;;;;28.48;23.83;100457.78;5103402;28;20055;-68
2022/07/18 06:41:08;;;;;;;4.20;1.10;;;;;;;28.88;23.58;100465.38;5104029;28;20055;-68
2022/07/18 06:43:33;;;;;;;5.10;1.75;;;;;;;28.92;23.77;100457.50;5106972;28;20045;-68
2022/07/18 06:45:59;;;;;;;3.13;1.38;;;;;;;29.46;23.00;100451.72;5104491;28;20043;-69
2022/07/18 06:48:24;;;;;;;2.88;1.40;;;;;;;29.64;22.64;100462.13;5102367;28;20044;-69
2022/07/18 06:50:50;;;;;;;6.72;1.33;;;;;;;30.07;21.91;100462.75;5101154;28;20040;-69
2022/07/18 06:53:15;;;;;;;3.70;1.20;;;;;;;30.25;21.37;100451.28;5105397;28;20035;-69
2022/07/18 06:55:41;;;;;;;5.88;2.58;;;;;;;30.35;21.77;100455.91;5109490;28;20031;-69
2022/07/18 06:58:06;;;;;;;5.82;1.30;;;;;;;30.31;21.56;100454.81;5118676;28;20028;-69
2022/07/18 07:00:32;;;;;;;2.70;1.25;;;;;;;30.41;21.92;100457.53;5113488;28;20321;-69
2022/07/18 07:02:57;;;;;;;5.65;1.92;;;;;;;30.65;21.94;100460.53;5118503;28;20058;-69
2022/07/18 07:05:24;;;;;;;3.65;1.20;;;;;;;30.74;20.49;100447.94;5115996;28;20236;-69
2022/07/18 07:07:49;;;;;;;3.67;1.55;;;;;;;31.15;20.73;100450.53;5118951;28;20023;-69
2022/07/18 07:10:17;;;;;;;12.35;1.50;;;;;;;31.47;20.80;100450.91;5118207;28;20068;-69
2022/07/18 07:12:45;;;;;;;4.28;2.17;;;;;;;31.06;21.90;100444.78;5118467;28;20456;-69
2022/07/18 07:15:12;;;;;;;4.53;3.10;;;;;;;30.61;21.70;100445.78;5114958;28;20344;-69
2022/07/18 07:17:37;;;;;;;5.63;1.55;;;;;;;31.11;20.50;100448.31;5115837;28;20156;-69
2022/07/18 07:20:05;;;;;;;5.43;1.38;;;;;;;31.24;21.42;100444.22;5117502;28;20325;-69
2022/07/18 07:22:31;;;;;;;4.15;1.40;;;;;;;31.60;20.97;100444.81;5117788;28;20028;-69
2022/07/18 07:24:56;;;;;;;2.95;1.40;;;;;;;31.72;20.18;100434.34;5117642;28;20104;-69
2022/07/18 07:27:22;;;;;;;9.55;1.40;;;;;;;32.08;20.15;100437.59;5115753;28;20053;-69
2022/07/18 07:29:47;;;;;;;3.83;1.60;;;;;;;31.66;20.08;100438.19;5118125;28;20241;-68
2022/07/18 07:32:12;;;;;;;5.47;2.67;;;;;;;31.99;20.06;100442.06;5113925;28;20024;-69
2022/07/18 07:34:38;;;;;;;7.78;1.48;;;;;;;32.54;18.44;100448.16;5116768;28;20044;-68
2022/07/18 07:37:03;;;;;;;7.63;1.88;;;;;;;32.23;19.01;100438.56;5117098;28;20024;-68
2022/07/18 07:39:29;;;;;;;6.05;1.15;;;;;;;32.40;17.85;100425.28;5115164;28;20363;-69
2022/07/18 07:41:54;;;;;;;3.50;1.52;;;;;;;32.31;19.34;100427.84;5113175;28;20036;-69
2022/07/18 07:44:20;;;;;;;5.72;1.27;;;;;;;32.14;17.79;100437.56;5116328;28;20031;-69
2022/07/18 07:46:45;;;;;;;4.72;1.38;;;;;;;32.32;18.19;100440.44;5116747;28;20185;-69
2022/07/18 07:49:11;;;;;;;7.95;1.30;;;;;;;32.47;18.64;100439.47;5116235;28;20035;-68
2022/07/18 07:51:36;;;;;;;2.30;1.23;;;;;;;32.43;18.65;100432.94;5119513;28;20040;-68
2022/07/18 07:54:02;;;;;;;5.20;1.35;;;;;;;32.21;18.96;100436.13;5119551;28;20031;-69
2022/07/18 07:56:28;;;;;;;3.05;1.50;;;;;;;31.61;21.45;100435.50;5115518;28;20039;-68
2022/07/18 07:58:53;;;;;;;3.58;1.48;;;;;;;31.33;21.21;100450.72;5118434;28;20026;-69
2022/07/18 08:01:19;;;;;;;3.35;1.08;;;;;;;30.84;20.91;100444.34;5114345;28;20032;-69
2022/07/18 08:03:48;;;;;;;3.30;1.27;;;;;;;31.31;21.06;100443.91;5117561;28;20031;-69
2022/07/18 08:06:14;;;;;;;4.72;1.42;;;;;;;31.12;22.62;100446.41;5114469;28;20080;-68
2022/07/18 08:08:39;;;;;;;6.05;1.85;;;;;;;30.89;22.46;100444.31;5118687;28;20321;-69
2022/07/18 08:11:05;;;;;;;2.67;1.52;;;;;;;31.34;21.60;100449.63;5116668;28;20043;-69
2022/07/18 08:13:30;;;;;;;2.63;1.50;;;;;;;31.75;22.29;100444.72;5097841;28;20019;-68
2022/07/18 08:15:56;;;;;;;3.42;1.52;;;;;;;31.02;22.35;100446.44;5120315;28;20039;-69
2022/07/18 08:18:21;;;;;;;2.97;1.15;;;;;;;30.31;24.57;100441.97;5108628;28;20217;-69
2022/07/18 08:20:47;;;;;;;5.68;1.60;;;;;;;30.81;24.23;100446.53;5116862;28;20031;-68
2022/07/18 08:23:12;;;;;;;4.03;1.58;;;;;;;30.37;23.79;100443.63;5115140;28;20024;-69
2022/07/18 08:25:40;;;;;;;3.80;1.75;;;;;;;30.32;23.53;100438.16;5115471;28;20333;-69
2022/07/18 08:28:07;;;;;;;2.63;1.60;;;;;;;30.38;24.18;100439.78;5114933;28;20031;-69
2022/07/18 08:30:33;;;;;;;3.90;1.45;;;;;;;29.96;24.51;100458.34;5111300;28;20387;-69
2022/07/18 08:32:59;;;;;;;2.85;1.52;;;;;;;30.03;25.54;100446.09;5105679;28;20037;-68
2022/07/18 08:35:24;;;;;;;7.47;1.60;;;;;;;29.62;23.92;100445.22;5102134;28;20027;-68
2022/07/18 08:37:50;;;;;;;5.80;1.63;;;;;;;29.26;24.81;100448.94;5102537;28;20047;-68
2022/07/18 08:40:16;;;;;;;1.95;1.65;;;;;;;29.30;25.89;100448.13;5100997;28;20027;-68
2022/07/18 08:42:42;;;;;;;9.57;1.85;;;;;;;29.41;24.89;100438.88;5103615;28;20035;-68
2022/07/18 08:45:08;;;;;;;3.47;1.70;;;;;;;29.50;25.98;100439.19;5102545;28;20040;-68
2022/07/18 08:47:34;;;;;;;8.15;2.00;;;;;;;29.93;24.02;100442.50;5098531;28;20213;-68
2022/07/18 08:50:01;;;;;;;5.68;2.05;;;;;;;30.28;23.84;100450.72;5104946;28;20050;-68
2022/07/18 08:52:28;;;;;;;6.30;1.95;;;;;;;29.69;25.23;100444.94;5102883;28;20107;-68
2022/07/18 08:54:54;;;;;;;4.18;1.92;;;;;;;29.64;25.57;100448.50;5099193;28;20040;-68
2022/07/18 08:57:19;;;;;;;3.92;2.00;;;;;;;29.68;25.66;100435.13;5106381;28;20047;-68
2022/07/18 08:59:45;;;;;;;3.83;1.90;;;;;;;30.13;25.84;100448.81;5103037;28;20035;-68
2022/07/18 09:02:11;;;;;;;5.25;1.85;;;;;;;29.93;27.04;100442.50;5102927;28;20028;-68
2022/07/18 09:04:44;;;;;;;8.60;2.03;;;;;;;29.69;26.10;100443.03;5087733;28;20435;-68
2022/07/18 09:07:22;;;;;;;3.55;1.85;;;;;;;29.72;27.22;100431.56;5102195;28;20044;-68
2022/07/18 09:09:57;;;;;;;6.38;2.20;;;;;;;29.65;26.84;100435.66;5084275;28;20226;-68
2022/07/18 09:12:25;;;;;;;2.90;2.13;;;;;;;29.36;27.40;100438.84;5102821;28;20069;-68
2022/07/18 09:14:50;;;;;;;11.45;2.20;;;;;;;29.27;27.75;100439.66;5107984;28;20027;-68
2022/07/18 09:17:28;;;;;;;4.10;1.95;;;;;;;29.56;27.16;100432.66;5116339;28;20065;-69
2022/07/18 09:20:08;;;;;;;5.93;2.17;;;;;;;29.92;26.73;100436.22;5117422;28;20178;-68
2022/07/18 09:22:37;;;;;;;5.72;1.90;;;;;;;29.51;27.54;100435.38;5112722;28;20054;-69
2022/07/18 09:25:02;;;;;;;4.03;1.83;;;;;;;29.37;27.06;100434.22;5096379;28;20237;-68
2022/07/18 09:27:45;;;;;;;4.97;1.90;;;;;;;29.40;26.78;100439.13;5096127;28;20107;-68
2022/07/18 09:30:35;;;;;;;3.33;1.90;;;;;;;29.63;26.73;100438.66;5095152;28;20301;-68
2022/07/18 09:33:03;;;;;;;22.30;3.10;;;;;;;29.60;28.20;100446.56;5096341;28;20041;-68
2022/07/18 09:35:37;;;;;;;2.60;1.88;;;;;;;29.29;27.20;100445.66;5095500;28;20080;-69
2022/07/18 09:38:08;;;;;;;4.22;1.88;;;;;;;29.14;28.21;100444.53;5079073;28;20055;-68
2022/07/18 09:40:39;;;;;;;3.40;1.77;;;;;;;29.34;27.85;100438.31;5093007;28;20087;-68
2022/07/18 09:43:07;;;;;;;6.25;2.05;;;;;;;29.61;26.75;100434.56;5097104;28;20296;-68
2022/07/18 09:45:34;;;;;;;16.15;2.95;;;;;;;29.83;27.67;100444.13;5099443;28;20028;-68
2022/07/18 09:48:02;;;;;;;4.85;2.22;;;;;;;29.16;27.87;100434.16;5099360;28;20036;-68
2022/07/18 09:50:31;;;;;;;3.53;2.30;;;;;;;29.41;26.46;100414.31;5099683;28;20050;-68
2022/07/18 09:53:23;;;;;;;5.25;1.98;;;;;;;29.45;28.46;100423.63;5096640;28;20040;-68
2022/07/18 09:56:12;;;;;;;8.40;2.13;;;;;;;29.02;28.20;100429.44;5097423;28;20039;-68
2022/07/18 09:58:51;;;;;;;5.18;2.22;;;;;;;29.11;28.60;100425.13;5091098;28;20040;-68
2022/07/18 10:01:17;;;;;;;4.32;2.05;;;;;;;29.16;28.86;100426.00;5097303;28;20066;-68
2022/07/18 10:03:43;;;;;;;3.63;2.25;;;;;;;29.25;28.38;100423.56;5096973;28;20028;-68
2022/07/18 10:06:08;;;;;;;6.80;2.30;;;;;;;28.99;28.91;100428.09;5100060;28;20237;-68
2022/07/18 10:08:35;;;;;;;3.13;2.10;;;;;;;28.75;29.36;100416.78;5088947;28;20044;-68
2022/07/18 10:11:03;;;;;;;4.15;2.17;;;;;;;28.96;28.53;100416.88;5083026;28;20036;-67
2022/07/18 10:13:32;;;;;;;4.65;2.45;;;;;;;28.87;28.85;100406.50;5085122;28;20087;-68
2022/07/18 10:15:59;;;;;;;4.40;2.45;;;;;;;29.20;29.61;100399.00;5090480;28;20060;-68
2022/07/18 10:18:27;;;;;;;5.38;2.33;;;;;;;29.03;29.29;100396.47;5096326;28;20345;-68
2022/07/18 10:21:05;;;;;;;3.75;2.13;;;;;;;28.93;28.65;100408.16;5100129;28;20051;-68
2022/07/18 10:23:38;;;;;;;6.30;1.83;;;;;;;28.95;28.23;100398.91;5097406;28;20050;-68
2022/07/18 10:26:20;;;;;;;3.77;2.00;;;;;;;29.33;28.77;100400.38;5117576;28;20052;-68
2022/07/18 10:29:00;;;;;;;6.93;2.47;;;;;;;29.31;28.89;100405.28;5120374;28;20407;-67
2022/07/18 10:32:01;;;;;;;5.07;2.15;;;;;;;29.26;28.14;100391.66;5117050;28;20232;-68
2022/07/18 10:34:32;;;;;;;5.28;2.25;;;;;;;29.20;28.28;100377.19;5119360;28;20036;-68
2022/07/18 10:37:02;;;;;;;5.75;2.17;;;;;;;29.41;28.55;100384.31;5102029;28;20035;-68
2022/07/18 10:39:46;;;;;;;8.40;2.22;;;;;;;29.45;28.99;100382.72;5119430;28;20286;-68
2022/07/18 10:42:14;;;;;;;5.45;2.05;;;;;;;29.55;28.96;100379.16;5119960;28;20032;-68
2022/07/18 10:44:40;;;;;;;4.03;2.45;;;;;;;29.45;28.37;100379.97;5118772;28;20328;-68
2022/07/18 10:47:17;;;;;;;2.67;2.00;;;;;;;29.10;29.50;100380.66;5120354;28;20364;-68
2022/07/18 10:49:57;;;;;;;6.95;2.22;;;;;;;29.32;30.63;100376.94;5118682;28;20036;-68
2022/07/18 10:52:23;;;;;;;7.35;2.60;;;;;;;29.68;29.23;100373.16;5116959;28;20027;-68
2022/07/18 10:55:16;;;;;;;4.63;2.20;;;;;;;29.77;28.37;100379.72;5115168;28;20352;-68
2022/07/18 10:57:50;;;;;;;6.65;2.53;;;;;;;29.61;28.78;100374.53;5115462;28;20061;-68
2022/07/18 11:00:24;;;;;;;4.93;2.38;;;;;;;29.62;28.82;100376.97;5118285;28;20229;-68
2022/07/18 11:03:09;;;;;;;4.88;2.47;;;;;;;29.72;28.15;100368.78;5118682;28;20086;-68
2022/07/18 11:05:41;;;;;;;6.40;2.45;;;;;;;29.66;28.92;100363.63;5116320;28;20035;-67
2022/07/18 11:08:08;;;;;;;5.10;2.45;;;;;;;29.84;28.41;100363.88;5117053;28;20053;-68
2022/07/18 11:10:54;;;;;;;4.55;2.42;;;;;;;29.75;27.30;100360.06;5101138;28;20305;-68
2022/07/18 11:13:28;;;;;;;7.32;2.22;;;;;;;29.94;27.24;100362.22;5099934;28;20255;-68
2022/07/18 11:16:06;;;;;;;5.60;2.40;;;;;;;29.95;27.92;100350.22;5102243;28;20031;-68
2022/07/18 11:18:53;;;;;;;8.13;2.78;;;;;;;30.09;29.73;100354.03;5105723;28;20043;-68
2022/07/18 11:21:25;;;;;;;4.30;2.45;;;;;;;29.96;27.94;100355.41;5102774;28;20028;-68
2022/07/18 11:23:53;;;;;;;9.13;2.35;;;;;;;29.71;28.03;100348.06;5103645;28;20055;-68
2022/07/18 11:26:23;;;;;;;6.53;2.55;;;;;;;29.59;29.30;100347.50;5104569;28;20111;-68
2022/07/18 11:28:58;;;;;;;4.25;2.50;;;;;;;29.82;27.25;100343.41;5105711;28;20024;-68